Time;durP1;ratioP1;P1;durP2;ratioP2;P2;SDS_P1;SDS_P2;PMS_P1;PMS_P2;Temp;Humidity;BMP_temperature;BMP_pressure;BME280_temperature;BME280_humidity;BME280_pressure;Samples;Min_cycle;Max_cycle;Signal;HPM_P1;HPM_P2
2023/04/30 00:01:43;;;;;;;13.87;5.13;;;4.10;99.90;;;;;;5036241;28;20175;-50
2023/04/30 00:04:09;;;;;;;10.87;5.57;;;4.10;99.90;;;;;;5036234;28;20649;-50
2023/04/30 00:06:35;;;;;;;16.67;5.73;;;4.00;1.00;;;;;;5036196;28;20646;-50
2023/04/30 00:09:00;;;;;;;15.80;6.00;;;4.00;1.00;;;;;;5036226;28;20534;-50
2023/04/30 00:11:26;;;;;;;11.47;5.67;;;4.00;1.00;;;;;;5035693;28;20318;-50
2023/04/30 00:13:52;;;;;;;17.00;5.40;;;4.00;1.00;;;;;;5035643;28;20187;-50
2023/04/30 00:16:18;;;;;;;20.57;6.47;;;3.90;1.00;;;;;;5035901;28;20406;-50
2023/04/30 00:18:43;;;;;;;19.43;5.40;;;3.90;1.00;;;;;;5035540;28;20198;-50
2023/04/30 00:21:09;;;;;;;14.13;5.63;;;3.90;60.40;;;;;;5036031;28;20175;-50
2023/04/30 00:23:35;;;;;;;15.73;5.37;;;3.90;99.90;;;;;;5035813;28;20650;-51
2023/04/30 00:26:00;;;;;;;13.20;5.77;;;3.90;99.90;;;;;;5035933;28;20535;-50
2023/04/30 00:28:26;;;;;;;15.27;5.67;;;3.90;99.90;;;;;;5035953;28;20207;-50
2023/04/30 00:30:52;;;;;;;20.30;5.80;;;3.80;99.90;;;;;;5035686;28;20241;-50
2023/04/30 00:33:17;;;;;;;13.93;6.40;;;3.80;99.90;;;;;;5035367;28;20183;-50
2023/04/30 00:35:43;;;;;;;16.37;6.20;;;3.80;99.90;;;;;;5035460;28;20585;-50
2023/04/30 00:38:08;;;;;;;15.83;6.00;;;3.80;99.90;;;;;;5035262;28;20190;-50
2023/04/30 00:40:35;;;;;;;17.93;6.43;;;3.70;81.30;;;;;;5035384;28;20183;-50
2023/04/30 00:43:00;;;;;;;14.00;7.33;;;3.70;99.90;;;;;;5035426;28;20170;-50
2023/04/30 00:45:26;;;;;;;13.07;5.80;;;3.70;1.00;;;;;;5035298;28;20912;-50
2023/04/30 00:47:52;;;;;;;21.67;6.10;;;3.70;99.90;;;;;;5034839;28;20293;-50
2023/04/30 00:50:17;;;;;;;16.57;6.40;;;3.70;99.90;;;;;;5034860;28;20190;-50
2023/04/30 00:52:43;;;;;;;13.50;5.73;;;3.60;99.90;;;;;;5035075;28;20179;-50
2023/04/30 00:55:11;;;;;;;20.10;6.73;;;3.60;99.90;;;;;;5035010;28;20183;-50
2023/04/30 00:57:38;;;;;;;21.40;5.90;;;3.60;99.90;;;;;;5034949;28;20434;-50
2023/04/30 01:00:05;;;;;;;15.87;5.67;;;3.60;1.00;;;;;;5035175;28;20414;-51
2023/04/30 01:02:30;;;;;;;15.13;6.97;;;3.50;99.90;;;;;;5035086;28;20423;-50
2023/04/30 01:04:56;;;;;;;21.63;5.57;;;3.50;99.90;;;;;;5034992;28;20987;-49
2023/04/30 01:07:24;;;;;;;13.43;5.53;;;3.50;1.00;;;;;;5034675;28;20421;-50
2023/04/30 01:09:50;;;;;;;17.97;5.97;;;3.40;1.00;;;;;;5034988;28;20183;-50
2023/04/30 01:12:35;;;;;;;9.40;4.93;;;3.40;1.00;;;;;;5034475;28;20411;-50
2023/04/30 01:15:24;;;;;;;18.27;6.47;;;3.40;1.00;;;;;;5034667;28;20187;-49
2023/04/30 01:17:59;;;;;;;17.50;5.93;;;3.40;1.00;;;;;;5034365;28;20841;-49
2023/04/30 01:20:28;;;;;;;11.20;6.10;;;3.30;1.00;;;;;;5034227;28;20450;-50
2023/04/30 01:23:11;;;;;;;19.87;6.77;;;3.30;16.50;;;;;;5034501;28;20414;-50
2023/04/30 01:25:58;;;;;;;21.47;6.57;;;3.30;25.80;;;;;;5034175;28;20429;-50
2023/04/30 01:28:25;;;;;;;13.83;5.57;;;3.30;57.10;;;;;;5034890;28;20799;-50
2023/04/30 01:30:51;;;;;;;24.10;6.03;;;3.20;70.20;;;;;;5034643;28;20434;-50
2023/04/30 01:33:17;;;;;;;19.13;5.90;;;3.20;99.90;;;;;;5034618;28;20414;-50
2023/04/30 01:35:51;;;;;;;16.60;6.53;;;3.20;99.90;;;;;;5034198;28;20940;-50
2023/04/30 01:38:27;;;;;;;15.07;6.30;;;3.20;1.00;;;;;;5034046;28;20217;-50
2023/04/30 01:41:07;;;;;;;12.70;5.80;;;3.20;1.00;;;;;;5034515;28;20413;-50
2023/04/30 01:43:35;;;;;;;12.07;6.63;;;3.10;99.90;;;;;;5034703;28;20402;-51
2023/04/30 01:46:26;;;;;;;15.03;6.40;;;3.10;99.90;;;;;;5034271;28;20476;-50
2023/04/30 01:49:16;;;;;;;12.07;6.67;;;3.00;1.00;;;;;;5032895;28;20489;-50
2023/04/30 01:51:44;;;;;;;19.90;5.70;;;3.00;1.00;;;;;;5033658;28;20425;-50
2023/04/30 01:54:59;;;;;;;21.90;6.70;;;3.00;99.90;;;;;;5033207;28;20449;-50
2023/04/30 01:57:31;;;;;;;16.83;5.63;;;3.00;1.00;;;;;;5024621;28;20930;-50
2023/04/30 01:59:57;;;;;;;13.37;6.47;;;3.00;82.20;;;;;;5033058;28;20426;-50
2023/04/30 02:02:23;;;;;;;20.17;7.00;;;3.00;99.90;;;;;;5033173;28;20425;-50
2023/04/30 02:04:48;;;;;;;18.47;5.97;;;2.90;99.90;;;;;;5033102;28;20218;-50
2023/04/30 02:07:26;;;;;;;15.20;6.47;;;2.90;99.90;;;;;;5033293;28;20215;-50
2023/04/30 02:09:51;;;;;;;19.20;6.20;;;2.90;99.90;;;;;;5033111;28;20176;-50
2023/04/30 02:12:17;;;;;;;15.20;6.20;;;2.90;99.90;;;;;;5032960;28;20968;-50
2023/04/30 02:14:42;;;;;;;13.90;5.60;;;2.90;99.90;;;;;;5032955;28;20597;-50
2023/04/30 02:17:08;;;;;;;16.43;5.87;;;2.90;99.90;;;;;;5032918;28;20183;-50
2023/04/30 02:19:33;;;;;;;11.90;6.27;;;3.00;99.90;;;;;;5032781;28;20182;-51
2023/04/30 02:21:59;;;;;;;17.10;6.33;;;3.00;45.00;;;;;;5032791;28;20273;-50
2023/04/30 02:24:25;;;;;;;11.87;5.53;;;3.00;1.00;;;;;;5033148;28;20188;-50
2023/04/30 02:26:50;;;;;;;9.30;5.50;;;2.90;1.00;;;;;;5032503;28;20234;-50
2023/04/30 02:29:16;;;;;;;8.93;5.10;;;2.90;1.00;;;;;;5032888;28;20226;-51
2023/04/30 02:31:41;;;;;;;19.70;6.37;;;2.90;1.00;;;;;;5032584;28;20733;-51
2023/04/30 02:34:07;;;;;;;16.90;6.87;;;2.90;1.00;;;;;;5032441;28;20180;-50
2023/04/30 02:36:35;;;;;;;14.87;6.40;;;2.90;1.00;;;;;;5031548;28;20176;-50
2023/04/30 02:39:01;;;;;;;14.50;6.40;;;2.80;1.00;;;;;;5032437;28;20257;-50
2023/04/30 02:41:26;;;;;;;17.13;7.33;;;2.80;99.90;;;;;;5032383;28;20915;-50
2023/04/30 02:43:52;;;;;;;10.37;5.93;;;2.80;99.90;;;;;;5032592;28;20183;-50
2023/04/30 02:46:18;;;;;;;17.27;6.57;;;2.80;99.90;;;;;;5032375;28;20647;-50
2023/04/30 02:48:43;;;;;;;15.53;6.23;;;2.70;1.00;;;;;;4995484;28;1080477;-50
2023/04/30 02:51:09;;;;;;;24.00;6.70;;;2.70;1.00;;;;;;5033734;28;20194;-50
2023/04/30 02:53:34;;;;;;;23.77;6.57;;;2.70;1.00;;;;;;5033104;28;20186;-50
2023/04/30 02:56:00;;;;;;;17.73;5.83;;;2.70;1.00;;;;;;5033452;28;20183;-50
2023/04/30 02:58:26;;;;;;;24.20;6.40;;;2.70;1.00;;;;;;5033389;28;20270;-50
2023/04/30 03:00:51;;;;;;;22.13;6.10;;;2.70;1.00;;;;;;5033225;28;20190;-50
2023/04/30 03:03:26;;;;;;;16.23;6.40;;;2.70;1.00;;;;;;5033041;28;20180;-50
2023/04/30 03:05:52;;;;;;;12.90;6.37;;;2.70;1.00;;;;;;5032954;28;20163;-50
2023/04/30 03:08:17;;;;;;;14.27;5.63;;;2.60;1.00;;;;;;5033006;28;20606;-51
2023/04/30 03:10:43;;;;;;;14.50;6.07;;;2.60;99.90;;;;;;5033032;28;20270;-51
2023/04/30 03:13:08;;;;;;;19.80;5.47;;;2.60;1.00;;;;;;5032920;28;20202;-50
2023/04/30 03:15:34;;;;;;;22.27;6.10;;;2.60;1.00;;;;;;5033305;28;20182;-50
2023/04/30 03:17:59;;;;;;;12.10;5.97;;;2.60;1.00;;;;;;5033264;28;20647;-50
2023/04/30 03:20:25;;;;;;;19.67;6.17;;;2.60;1.00;;;;;;5033078;28;20651;-50
2023/04/30 03:22:50;;;;;;;16.43;6.37;;;2.50;1.00;;;;;;5033154;28;20238;-50
2023/04/30 03:25:16;;;;;;;21.37;6.13;;;2.50;1.00;;;;;;5032967;28;20183;-51
2023/04/30 03:27:42;;;;;;;15.70;6.90;;;2.50;13.10;;;;;;5032830;28;20758;-50
2023/04/30 03:30:08;;;;;;;13.93;5.83;;;2.50;85.60;;;;;;5033154;28;20189;-50
2023/04/30 03:32:33;;;;;;;19.10;5.87;;;2.50;73.40;;;;;;5032600;28;20226;-50
2023/04/30 03:34:59;;;;;;;21.77;6.53;;;2.50;99.90;;;;;;5032804;28;20195;-51
2023/04/30 03:37:24;;;;;;;18.20;6.40;;;2.50;99.90;;;;;;5032852;28;20188;-50
2023/04/30 03:39:50;;;;;;;13.43;6.10;;;2.50;99.90;;;;;;5033121;28;20176;-50
2023/04/30 03:42:16;;;;;;;12.43;5.03;;;2.50;99.90;;;;;;5033012;28;20175;-50
2023/04/30 03:44:41;;;;;;;13.73;5.80;;;2.50;99.90;;;;;;5033098;28;20186;-50
2023/04/30 03:47:07;;;;;;;14.90;6.03;;;2.50;99.90;;;;;;5032765;28;20635;-50
2023/04/30 03:49:32;;;;;;;19.63;5.63;;;2.50;99.90;;;;;;5035776;28;20191;-49
2023/04/30 03:51:58;;;;;;;9.83;5.83;;;2.50;99.90;;;;;;5036152;28;20707;-49
2023/04/30 03:54:24;;;;;;;13.63;5.13;;;2.50;99.90;;;;;;5036466;28;20186;-50
2023/04/30 03:56:49;;;;;;;17.30;6.47;;;2.50;99.90;;;;;;5036022;28;20182;-49
2023/04/30 03:59:15;;;;;;;13.77;5.67;;;2.60;99.90;;;;;;5036467;28;20218;-49
2023/04/30 04:01:41;;;;;;;26.00;5.97;;;2.60;99.90;;;;;;5036303;28;20188;-50
2023/04/30 04:04:08;;;;;;;14.60;6.73;;;2.60;99.90;;;;;;5036322;28;20460;-49
2023/04/30 04:06:33;;;;;;;18.67;6.60;;;2.60;99.90;;;;;;5036081;28;20182;-49
2023/04/30 04:08:59;;;;;;;21.20;6.33;;;2.70;99.90;;;;;;5035581;28;20477;-50
2023/04/30 04:11:25;;;;;;;19.93;6.33;;;2.70;99.90;;;;;;5036259;28;20188;-50
2023/04/30 04:13:50;;;;;;;16.33;6.00;;;2.80;99.90;;;;;;5036469;28;20197;-49
2023/04/30 04:16:16;;;;;;;12.90;6.50;;;2.80;99.90;;;;;;5035986;28;20415;-49
2023/04/30 04:18:41;;;;;;;15.60;6.77;;;2.90;99.90;;;;;;5035644;28;20262;-50
2023/04/30 04:21:07;;;;;;;16.67;6.50;;;3.00;1.00;;;;;;5035986;28;20183;-50
2023/04/30 04:23:33;;;;;;;15.30;6.80;;;3.00;1.00;;;;;;5036006;28;20183;-49
2023/04/30 04:25:59;;;;;;;17.73;7.07;;;3.10;1.00;;;;;;5035810;28;20416;-49
2023/04/30 04:28:25;;;;;;;17.10;7.87;;;3.10;99.90;;;;;;5035783;28;20565;-49
2023/04/30 04:30:51;;;;;;;13.00;7.80;;;3.20;99.90;;;;;;5035493;28;20191;-50
2023/04/30 04:33:17;;;;;;;14.90;6.17;;;3.20;1.00;;;;;;5035905;28;20508;-49
2023/04/30 04:35:42;;;;;;;17.73;6.77;;;3.30;1.00;;;;;;5035644;28;20933;-50
2023/04/30 04:38:08;;;;;;;17.23;6.70;;;3.30;99.90;;;;;;5035595;28;20628;-50
2023/04/30 04:40:34;;;;;;;16.50;8.00;;;3.40;99.90;;;;;;5034958;28;20218;-50
2023/04/30 04:43:00;;;;;;;18.10;7.30;;;3.40;99.90;;;;;;5035311;28;20476;-49
2023/04/30 04:45:25;;;;;;;17.30;6.90;;;3.50;62.20;;;;;;5035247;28;20207;-49
2023/04/30 04:47:51;;;;;;;13.67;6.60;;;3.60;1.00;;;;;;5035035;28;20313;-49
2023/04/30 04:50:17;;;;;;;15.43;6.90;;;3.70;1.00;;;;;;5035171;28;20674;-49
2023/04/30 04:52:42;;;;;;;17.17;6.93;;;3.70;1.00;;;;;;5035112;28;20179;-50
2023/04/30 04:55:08;;;;;;;12.30;6.73;;;3.80;99.90;;;;;;5035551;28;20290;-49
2023/04/30 04:57:34;;;;;;;18.50;8.50;;;3.90;99.90;;;;;;5035348;28;20187;-50
2023/04/30 04:59:59;;;;;;;11.60;6.60;;;4.00;99.90;;;;;;5034130;28;20421;-51
2023/04/30 05:02:25;;;;;;;14.00;8.27;;;4.10;99.90;;;;;;5034780;28;20320;-50
2023/04/30 05:04:50;;;;;;;25.00;8.00;;;4.30;99.90;;;;;;5034823;28;20183;-49
2023/04/30 05:07:17;;;;;;;16.00;7.10;;;4.40;93.80;;;;;;5034993;28;20180;-49
2023/04/30 05:09:46;;;;;;;15.00;7.70;;;4.50;1.00;;;;;;5035173;28;20192;-49
2023/04/30 05:12:12;;;;;;;20.80;7.30;;;4.60;1.00;;;;;;5035040;28;20419;-50
2023/04/30 05:14:38;;;;;;;27.27;7.87;;;4.70;1.00;;;;;;5035023;28;20425;-50
2023/04/30 05:17:03;;;;;;;14.27;6.77;;;4.80;1.00;;;;;;5035027;28;20422;-49
2023/04/30 05:19:29;;;;;;;17.70;6.37;;;5.00;1.00;;;;;;5034747;28;20233;-50
2023/04/30 05:21:55;;;;;;;12.60;6.33;;;5.10;1.00;;;;;;5034641;28;20628;-49
2023/04/30 05:24:20;;;;;;;21.23;6.43;;;5.20;1.00;;;;;;5034275;28;20180;-49
2023/04/30 05:26:46;;;;;;;18.10;6.90;;;5.30;99.90;;;;;;5034485;28;20207;-49
2023/04/30 05:29:12;;;;;;;17.07;6.90;;;5.40;99.90;;;;;;5034689;28;20207;-50
2023/04/30 05:31:37;;;;;;;13.90;5.90;;;5.60;99.90;;;;;;5034916;28;20529;-50
2023/04/30 05:34:03;;;;;;;12.67;5.60;;;5.70;99.90;;;;;;5034286;28;20179;-49
2023/04/30 05:36:28;;;;;;;13.60;5.83;;;5.90;99.90;;;;;;5034590;28;20180;-49
2023/04/30 05:38:54;;;;;;;12.33;5.63;;;6.10;99.90;;;;;;5034053;28;20667;-50
2023/04/30 05:41:20;;;;;;;12.93;6.13;;;6.30;99.90;;;;;;5034390;28;20557;-49
2023/04/30 05:43:46;;;;;;;18.83;5.67;;;6.50;99.90;;;;;;5034480;28;20203;-49
2023/04/30 05:46:12;;;;;;;18.63;5.93;;;6.70;47.70;;;;;;5034404;28;20448;-49
2023/04/30 05:48:38;;;;;;;9.63;5.60;;;6.90;10.80;;;;;;5033922;28;20969;-49
2023/04/30 05:51:07;;;;;;;13.67;5.17;;;7.20;1.00;;;;;;5033871;28;20620;-49
2023/04/30 05:53:32;;;;;;;11.80;5.50;;;7.50;1.00;;;;;;5034285;28;20519;-49
2023/04/30 05:55:58;;;;;;;9.70;4.73;;;7.70;1.00;;;;;;5034516;28;20456;-49
2023/04/30 05:58:24;;;;;;;15.00;5.10;;;8.00;1.00;;;;;;5033592;28;20198;-49
2023/04/30 06:00:53;;;;;;;11.83;5.17;;;8.20;1.00;;;;;;5034004;28;20584;-49
2023/04/30 06:03:19;;;;;;;13.30;4.57;;;8.40;1.00;;;;;;5034110;28;20845;-49
2023/04/30 06:05:46;;;;;;;13.37;5.00;;;8.60;1.00;;;;;;5033945;28;20425;-49
2023/04/30 06:08:12;;;;;;;19.73;4.77;;;8.70;1.00;;;;;;5033770;28;20656;-50
2023/04/30 06:10:38;;;;;;;14.03;4.63;;;8.90;1.00;;;;;;5033898;28;20416;-49
2023/04/30 06:13:03;;;;;;;7.87;3.90;;;9.10;1.00;;;;;;5033909;28;20184;-49
2023/04/30 06:15:29;;;;;;;11.93;4.67;;;9.20;1.00;;;;;;5033801;28;20469;-49
2023/04/30 06:17:55;;;;;;;10.63;3.87;;;9.30;1.00;;;;;;5033755;28;20192;-49
2023/04/30 06:20:20;;;;;;;15.50;4.97;;;9.50;1.00;;;;;;5033459;28;20278;-49
2023/04/30 06:22:46;;;;;;;12.93;4.10;;;9.70;1.00;;;;;;5033689;28;20262;-49
2023/04/30 06:25:11;;;;;;;9.93;3.40;;;9.90;1.00;;;;;;5033473;28;20186;-49
2023/04/30 06:27:37;;;;;;;12.20;3.70;;;10.00;1.00;;;;;;5033521;28;20574;-50
2023/04/30 06:30:03;;;;;;;9.40;3.60;;;10.00;1.00;;;;;;5033804;28;20622;-48
2023/04/30 06:32:29;;;;;;;12.43;4.20;;;10.00;1.00;;;;;;5032228;28;20540;-50
2023/04/30 06:34:54;;;;;;;9.50;3.80;;;10.20;1.00;;;;;;5033475;28;20273;-50
2023/04/30 06:37:20;;;;;;;7.00;3.60;;;10.40;1.00;;;;;;5033616;28;20227;-51
2023/04/30 06:39:46;;;;;;;10.50;3.87;;;10.70;1.00;;;;;;5033468;28;20254;-50
2023/04/30 06:42:11;;;;;;;13.23;3.87;;;11.00;1.00;;;;;;5033466;28;20184;-50
2023/04/30 06:44:37;;;;;;;7.00;3.50;;;11.20;1.00;;;;;;5033409;28;20297;-50
2023/04/30 06:47:02;;;;;;;8.60;3.10;;;11.10;1.00;;;;;;5033898;28;20652;-51
2023/04/30 06:49:28;;;;;;;6.43;3.27;;;11.20;1.00;;;;;;5033137;28;20643;-51
2023/04/30 06:51:55;;;;;;;9.10;3.60;;;11.30;1.00;;;;;;5033481;28;20209;-50
2023/04/30 06:54:21;;;;;;;9.13;4.13;;;11.10;1.00;;;;;;5033182;28;20689;-51
2023/04/30 06:56:47;;;;;;;14.90;4.57;;;10.60;1.00;;;;;;5033091;28;20910;-51
2023/04/30 06:59:13;;;;;;;13.67;3.70;;;10.40;1.00;;;;;;5033384;28;20455;-50
2023/04/30 07:01:39;;;;;;;7.33;3.60;;;10.40;1.00;;;;;;5033382;28;20179;-50
2023/04/30 07:04:05;;;;;;;7.10;3.40;;;10.30;1.00;;;;;;5033465;28;20183;-50
2023/04/30 07:06:30;;;;;;;13.40;3.13;;;10.80;1.00;;;;;;5033635;28;20468;-50
2023/04/30 07:08:56;;;;;;;9.17;3.50;;;11.20;1.00;;;;;;5033099;28;20604;-50
2023/04/30 07:11:22;;;;;;;12.63;3.57;;;11.40;1.00;;;;;;5033333;28;20183;-50
2023/04/30 07:13:48;;;;;;;6.90;3.60;;;11.20;1.00;;;;;;5033389;28;20191;-51
2023/04/30 07:16:15;;;;;;;10.83;3.20;;;11.10;1.00;;;;;;5033228;28;20658;-51
2023/04/30 07:18:41;;;;;;;8.97;3.40;;;11.50;1.00;;;;;;5033146;28;20175;-50
2023/04/30 07:21:07;;;;;;;7.80;3.10;;;11.90;1.00;;;;;;5032053;28;20451;-51
2023/04/30 07:23:33;;;;;;;8.53;3.27;;;12.30;1.00;;;;;;5034829;28;20503;-50
2023/04/30 07:25:59;;;;;;;10.10;3.77;;;12.50;1.00;;;;;;5036681;28;20183;-50
2023/04/30 07:28:25;;;;;;;10.90;3.33;;;12.60;1.00;;;;;;5037141;28;20469;-50
2023/04/30 07:30:51;;;;;;;8.90;3.43;;;12.50;1.00;;;;;;5037051;28;20180;-50
2023/04/30 07:33:16;;;;;;;5.70;3.40;;;13.20;1.00;;;;;;5036725;28;20190;-51
2023/04/30 07:35:42;;;;;;;12.97;3.20;;;13.90;1.00;;;;;;5036811;28;20414;-51
2023/04/30 07:38:07;;;;;;;7.20;2.73;;;14.20;1.00;;;;;;5036564;28;20180;-51
2023/04/30 07:40:33;;;;;;;7.40;3.23;;;14.30;1.00;;;;;;5036748;28;20180;-51
2023/04/30 07:42:59;;;;;;;8.17;3.10;;;14.00;1.00;;;;;;5035516;28;20203;-51
2023/04/30 07:45:24;;;;;;;6.03;3.00;;;13.20;1.00;;;;;;5035274;28;20619;-50
2023/04/30 07:47:50;;;;;;;11.77;2.97;;;12.70;1.00;;;;;;5034953;28;20247;-50
2023/04/30 07:50:16;;;;;;;7.10;3.30;;;12.70;1.00;;;;;;5035185;28;20275;-51
2023/04/30 07:52:41;;;;;;;5.47;2.90;;;13.00;1.00;;;;;;5034891;28;20185;-51
2023/04/30 07:55:07;;;;;;;8.60;3.47;;;13.30;1.00;;;;;;5034905;28;20180;-51
2023/04/30 07:57:33;;;;;;;7.97;3.57;;;13.00;1.00;;;;;;5035418;28;20202;-50
2023/04/30 07:59:58;;;;;;;14.50;3.70;;;13.20;1.00;;;;;;5035933;28;20421;-51
2023/04/30 08:02:24;;;;;;;5.43;2.90;;;13.40;1.00;;;;;;5036490;28;20659;-50
2023/04/30 08:04:50;;;;;;;8.33;3.50;;;14.00;1.00;;;;;;5035928;28;20634;-50
2023/04/30 08:07:16;;;;;;;5.43;3.00;;;14.20;1.00;;;;;;5036143;28;20190;-51
2023/04/30 08:09:41;;;;;;;6.90;3.33;;;14.10;1.00;;;;;;5036098;28;20188;-52
2023/04/30 08:12:08;;;;;;;9.13;3.43;;;14.00;1.00;;;;;;5036227;28;20536;-55
2023/04/30 08:14:34;;;;;;;10.53;3.47;;;13.70;1.00;;;;;;5035724;28;20186;-51
2023/04/30 08:17:01;;;;;;;8.33;3.27;;;14.00;1.00;;;;;;5036063;28;20506;-51
2023/04/30 08:19:27;;;;;;;12.90;3.27;;;14.50;1.00;;;;;;5035713;28;20198;-51
2023/04/30 08:21:52;;;;;;;11.03;4.00;;;14.60;1.00;;;;;;5036032;28;20410;-50
2023/04/30 08:24:18;;;;;;;8.57;3.50;;;13.90;1.00;;;;;;5035832;28;20636;-51
2023/04/30 08:26:43;;;;;;;5.87;3.10;;;13.00;1.00;;;;;;5035921;28;20621;-51
2023/04/30 08:29:09;;;;;;;6.90;4.03;;;12.90;1.00;;;;;;5035428;28;20203;-51
2023/04/30 08:31:35;;;;;;;11.50;3.37;;;13.30;1.00;;;;;;5035969;28;20191;-50
2023/04/30 08:34:00;;;;;;;7.33;3.27;;;14.00;1.00;;;;;;5035163;28;20188;-51
2023/04/30 08:36:26;;;;;;;8.60;3.77;;;14.40;1.00;;;;;;5035388;28;20215;-50
2023/04/30 08:38:52;;;;;;;8.97;3.80;;;14.60;1.00;;;;;;5035701;28;20197;-50
2023/04/30 08:41:21;;;;;;;8.93;3.50;;;14.50;1.00;;;;;;5035839;28;20189;-51
2023/04/30 08:43:50;;;;;;;6.90;3.20;;;14.30;1.00;;;;;;5035601;28;20528;-51
2023/04/30 08:46:18;;;;;;;10.67;3.20;;;14.70;1.00;;;;;;5034997;28;20430;-52
2023/04/30 08:48:44;;;;;;;4.63;3.10;;;15.50;1.00;;;;;;5035436;28;20482;-51
2023/04/30 08:51:10;;;;;;;7.77;3.13;;;15.70;1.00;;;;;;5034950;28;20907;-51
2023/04/30 08:53:39;;;;;;;8.90;3.30;;;16.00;1.00;;;;;;5035200;28;20509;-51
2023/04/30 08:56:05;;;;;;;8.87;3.97;;;16.20;1.00;;;;;;5035123;28;20190;-52
2023/04/30 08:58:31;;;;;;;5.43;2.93;;;16.60;1.00;;;;;;5035516;28;20422;-51
2023/04/30 09:01:00;;;;;;;12.17;3.57;;;17.00;1.00;;;;;;5035034;28;20441;-51
2023/04/30 09:03:27;;;;;;;6.40;3.20;;;17.30;1.00;;;;;;5034912;28;20267;-51
2023/04/30 09:05:53;;;;;;;6.50;2.83;;;17.50;1.00;;;;;;5035093;28;20434;-51
2023/04/30 09:08:40;;;;;;;7.73;3.27;;;17.40;1.00;;;;;;5034748;28;20481;-51
2023/04/30 09:11:26;;;;;;;11.93;4.80;;;17.30;1.00;;;;;;5035373;28;20414;-50
2023/04/30 09:13:59;;;;;;;7.03;3.20;;;17.00;1.00;;;;;;5035367;28;20760;-51
2023/04/30 09:16:29;;;;;;;8.20;3.40;;;17.00;1.00;;;;;;5035127;28;20414;-51
2023/04/30 09:18:55;;;;;;;7.00;3.10;;;17.30;1.00;;;;;;5034952;28;20427;-51
2023/04/30 09:21:34;;;;;;;5.40;2.67;;;17.20;1.00;;;;;;5034931;28;20427;-51
2023/04/30 09:24:02;;;;;;;6.47;2.73;;;17.30;1.00;;;;;;5034904;28;20181;-50
2023/04/30 09:26:36;;;;;;;9.10;3.57;;;17.30;1.00;;;;;;5034551;28;20438;-51
2023/04/30 09:29:06;;;;;;;7.40;3.37;;;16.90;1.00;;;;;;5034161;28;20497;-51
2023/04/30 09:31:33;;;;;;;4.40;2.77;;;16.80;1.00;;;;;;5034482;28;20415;-51
2023/04/30 09:33:59;;;;;;;6.27;2.90;;;16.80;1.00;;;;;;5034494;28;20419;-51
2023/04/30 09:36:25;;;;;;;8.57;3.50;;;17.30;1.00;;;;;;5034665;28;20992;-51
2023/04/30 09:38:50;;;;;;;8.53;2.90;;;17.30;1.00;;;;;;5034520;28;20722;-51
2023/04/30 09:41:25;;;;;;;7.70;3.23;;;17.30;1.00;;;;;;5034520;28;20204;-51
2023/04/30 09:43:51;;;;;;;8.20;3.30;;;17.40;1.00;;;;;;5034412;28;20214;-52
2023/04/30 09:46:19;;;;;;;6.30;3.00;;;17.30;1.00;;;;;;5034075;28;20498;-51
2023/04/30 09:48:44;;;;;;;6.67;3.37;;;17.10;1.00;;;;;;5033826;28;20492;-51
2023/04/30 09:51:10;;;;;;;6.63;2.70;;;17.00;1.00;;;;;;5034084;28;20410;-52
2023/04/30 09:53:42;;;;;;;4.60;2.90;;;17.10;1.00;;;;;;5034124;28;20223;-51
2023/04/30 09:56:11;;;;;;;5.00;3.10;;;17.30;1.00;;;;;;5034414;28;20177;-52
2023/04/30 09:58:38;;;;;;;8.50;2.97;;;17.20;1.00;;;;;;5033822;28;21130;-53
2023/04/30 10:01:06;;;;;;;8.90;3.50;;;16.90;1.00;;;;;;5034277;28;20436;-52
2023/04/30 10:03:32;;;;;;;8.87;3.90;;;16.90;1.00;;;;;;5033831;28;20452;-51
2023/04/30 10:05:59;;;;;;;7.53;3.73;;;17.40;1.00;;;;;;5033965;28;20406;-52
2023/04/30 10:08:30;;;;;;;5.50;2.60;;;17.80;1.00;;;;;;5033800;28;20466;-52
2023/04/30 10:11:07;;;;;;;13.33;3.73;;;18.40;1.00;;;;;;5033797;28;20460;-51
2023/04/30 10:13:41;;;;;;;8.10;3.57;;;18.30;99.90;;;;;;5034041;28;20433;-53
2023/04/30 10:16:17;;;;;;;4.07;3.30;;;17.80;99.90;;;;;;5033540;28;20443;-52
2023/04/30 10:18:45;;;;;;;5.60;2.93;;;17.50;99.90;;;;;;5034039;28;20499;-52
2023/04/30 10:21:13;;;;;;;6.23;3.40;;;17.20;99.90;;;;;;5034006;28;20421;-52
2023/04/30 10:23:42;;;;;;;4.87;2.80;;;17.40;99.90;;;;;;5033879;28;20507;-51
2023/04/30 10:26:11;;;;;;;8.33;3.43;;;17.30;99.90;;;;;;5033680;28;20769;-51
2023/04/30 10:28:37;;;;;;;9.93;2.97;;;17.10;99.90;;;;;;5033137;28;20480;-53
2023/04/30 10:31:05;;;;;;;8.43;3.03;;;17.20;99.90;;;;;;5033999;28;20984;-52
2023/04/30 10:34:00;;;;;;;4.27;2.90;;;17.50;99.90;;;;;;5033375;28;20421;-51
2023/04/30 10:36:37;;;;;;;10.60;3.23;;;18.30;99.90;;;;;;5033589;28;20529;-51
2023/04/30 10:39:04;;;;;;;5.17;2.87;;;19.10;99.90;;;;;;5033748;28;20778;-52
2023/04/30 10:41:30;;;;;;;4.73;3.07;;;19.20;99.90;;;;;;5033282;28;20917;-52
2023/04/30 10:43:58;;;;;;;7.40;3.20;;;19.40;99.90;;;;;;5033623;28;20426;-53
2023/04/30 10:46:24;;;;;;;12.40;3.40;;;19.60;99.90;;;;;;5033617;28;20517;-53
2023/04/30 10:48:53;;;;;;;6.30;3.33;;;19.50;99.90;;;;;;5032886;28;20492;-53
2023/04/30 10:51:20;;;;;;;6.90;3.20;;;19.70;99.90;;;;;;5033047;28;20436;-53
2023/04/30 10:53:49;;;;;;;5.83;3.50;;;19.90;99.90;;;;;;5033478;28;20584;-53
2023/04/30 10:56:31;;;;;;;5.73;3.43;;;20.20;99.90;;;;;;5033416;28;20413;-52
2023/04/30 10:59:03;;;;;;;9.67;3.00;;;20.00;99.90;;;;;;5035749;28;20460;-54
2023/04/30 11:01:29;;;;;;;9.73;2.60;;;19.80;99.90;;;;;;5037201;28;20429;-53
2023/04/30 11:04:08;;;;;;;7.93;3.43;;;19.80;99.90;;;;;;5037296;28;20417;-53
2023/04/30 11:06:53;;;;;;;8.10;3.20;;;19.80;99.90;;;;;;5037302;28;20425;-53
2023/04/30 11:09:33;;;;;;;6.07;3.60;;;20.20;99.90;;;;;;5036912;28;20460;-53
2023/04/30 11:12:03;;;;;;;5.17;2.87;;;20.60;99.90;;;;;;5037197;28;20401;-54
2023/04/30 11:14:32;;;;;;;7.87;3.97;;;20.80;99.90;;;;;;5036895;28;20982;-53
2023/04/30 11:17:00;;;;;;;9.13;3.77;;;20.70;99.90;;;;;;5036834;28;20508;-52
2023/04/30 11:19:28;;;;;;;10.00;3.53;;;20.80;99.90;;;;;;5037169;28;20568;-53
2023/04/30 11:22:03;;;;;;;11.03;3.80;;;21.00;99.90;;;;;;5036921;28;20460;-54
2023/04/30 11:25:08;;;;;;;5.00;3.63;;;20.80;99.90;;;;;;5036273;28;20511;-52
2023/04/30 11:27:36;;;;;;;9.93;3.37;;;20.90;99.90;;;;;;5035644;28;21232;-52
2023/04/30 11:30:04;;;;;;;8.03;3.57;;;20.90;99.90;;;;;;5037152;28;20429;-52
2023/04/30 11:32:34;;;;;;;5.10;3.10;;;20.90;99.90;;;;;;5036433;28;20901;-54
2023/04/30 11:35:03;;;;;;;7.37;3.43;;;20.80;99.90;;;;;;5036585;28;20851;-53
2023/04/30 11:37:29;;;;;;;7.77;3.50;;;20.60;99.90;;;;;;5036720;28;20486;-54
2023/04/30 11:40:06;;;;;;;4.57;3.57;;;20.90;99.90;;;;;;5036541;28;20467;-53
2023/04/30 11:42:35;;;;;;;10.50;3.77;;;21.30;99.90;;;;;;5036616;28;20406;-53
2023/04/30 11:45:07;;;;;;;6.37;3.60;;;21.50;99.90;;;;;;5036550;28;20529;-54
2023/04/30 11:47:56;;;;;;;6.27;3.20;;;21.70;99.90;;;;;;5035918;28;20477;-54
2023/04/30 11:50:30;;;;;;;5.47;3.63;;;21.70;99.90;;;;;;5036499;28;20423;-54
2023/04/30 11:52:56;;;;;;;7.50;3.77;;;21.40;99.90;;;;;;5036564;28;20409;-54
2023/04/30 11:55:24;;;;;;;11.20;3.80;;;21.60;99.90;;;;;;5036286;28;20487;-53
2023/04/30 11:57:55;;;;;;;7.33;3.90;;;21.70;99.90;;;;;;5036257;28;20503;-52
2023/04/30 12:00:26;;;;;;;9.27;3.30;;;21.50;99.90;;;;;;5036456;28;20521;-53
2023/04/30 12:02:53;;;;;;;9.13;3.70;;;21.80;99.90;;;;;;5036097;28;20496;-55
2023/04/30 12:05:20;;;;;;;12.07;3.83;;;22.00;99.90;;;;;;5035892;28;20834;-53
2023/04/30 12:08:05;;;;;;;6.60;3.47;;;21.90;99.90;;;;;;5036189;28;20464;-53
2023/04/30 12:10:31;;;;;;;9.30;3.50;;;21.80;99.90;;;;;;5035254;28;20427;-54
2023/04/30 12:12:57;;;;;;;14.53;4.20;;;21.70;99.90;;;;;;5035899;28;20432;-54
2023/04/30 12:15:27;;;;;;;12.80;4.40;;;21.50;99.90;;;;;;5035821;28;20476;-54
2023/04/30 12:17:55;;;;;;;10.67;4.50;;;21.10;99.90;;;;;;5035970;28;20195;-54
2023/04/30 12:20:23;;;;;;;7.60;3.90;;;21.30;99.90;;;;;;5036135;28;20447;-53
2023/04/30 12:22:49;;;;;;;7.90;4.00;;;21.50;99.90;;;;;;5035763;28;20434;-53
2023/04/30 12:25:17;;;;;;;8.93;4.70;;;21.80;99.90;;;;;;5036107;28;20455;-54
2023/04/30 12:27:47;;;;;;;11.63;5.23;;;22.10;99.90;;;;;;5035542;28;20321;-54
2023/04/30 12:30:14;;;;;;;5.23;3.50;;;22.10;99.90;;;;;;5036108;28;20780;-53
2023/04/30 12:32:44;;;;;;;7.33;4.30;;;22.20;99.90;;;;;;5035568;28;20882;-53
2023/04/30 12:35:21;;;;;;;6.97;4.13;;;21.90;99.90;;;;;;5035933;28;20433;-54
2023/04/30 12:37:51;;;;;;;6.40;3.50;;;22.20;99.90;;;;;;5035637;28;20470;-53
2023/04/30 12:40:19;;;;;;;8.33;4.17;;;22.50;99.90;;;;;;5035424;28;20420;-54
2023/04/30 12:42:47;;;;;;;5.80;3.53;;;22.60;99.90;;;;;;5035704;28;20456;-53
2023/04/30 12:45:52;;;;;;;8.87;4.70;;;22.30;99.90;;;;;;5034972;28;20892;-54
2023/04/30 12:48:23;;;;;;;4.87;3.57;;;21.90;99.90;;;;;;5035080;28;20492;-53
2023/04/30 12:51:00;;;;;;;10.67;4.43;;;22.20;99.90;;;;;;5035612;28;20471;-53
2023/04/30 12:53:26;;;;;;;6.60;3.80;;;21.90;99.90;;;;;;5035190;28;20902;-53
2023/04/30 12:56:11;;;;;;;7.90;3.80;;;22.10;99.90;;;;;;5035152;28;20417;-52